sensor_id;sensor_type;location;lat;lon;timestamp;P1;durP1;ratioP1;P2;durP2;ratioP2
56455;SDS011;42354;53.218;6.564;2023-11-21T00:00:03;29.52;;;6.45;;
56455;SDS011;42354;53.218;6.564;2023-11-21T00:02:35;26.38;;;6.47;;
56455;SDS011;42354;53.218;6.564;2023-11-21T00:05:01;39.30;;;6.55;;
56455;SDS011;42354;53.218;6.564;2023-11-21T00:07:28;29.65;;;6.72;;
56455;SDS011;42354;53.218;6.564;2023-11-21T00:09:56;32.70;;;6.93;;
56455;SDS011;42354;53.218;6.564;2023-11-21T00:12:21;32.95;;;6.22;;
56455;SDS011;42354;53.218;6.564;2023-11-21T00:14:47;33.55;;;6.93;;
56455;SDS011;42354;53.218;6.564;2023-11-21T00:17:12;30.23;;;6.90;;
56455;SDS011;42354;53.218;6.564;2023-11-21T00:19:38;44.17;;;7.55;;
56455;SDS011;42354;53.218;6.564;2023-11-21T00:22:03;29.65;;;7.43;;
56455;SDS011;42354;53.218;6.564;2023-11-21T00:24:28;34.92;;;6.32;;
56455;SDS011;42354;53.218;6.564;2023-11-21T00:26:54;40.92;;;7.82;;
56455;SDS011;42354;53.218;6.564;2023-11-21T00:29:19;25.63;;;6.30;;
56455;SDS011;42354;53.218;6.564;2023-11-21T00:31:45;39.25;;;7.00;;
56455;SDS011;42354;53.218;6.564;2023-11-21T00:34:13;33.13;;;7.95;;
56455;SDS011;42354;53.218;6.564;2023-11-21T00:36:38;35.55;;;7.32;;
56455;SDS011;42354;53.218;6.564;2023-11-21T00:39:03;35.53;;;7.75;;
56455;SDS011;42354;53.218;6.564;2023-11-21T00:41:30;48.53;;;8.63;;
56455;SDS011;42354;53.218;6.564;2023-11-21T00:43:56;32.42;;;7.78;;
56455;SDS011;42354;53.218;6.564;2023-11-21T00:46:22;39.33;;;8.13;;
56455;SDS011;42354;53.218;6.564;2023-11-21T00:48:49;34.35;;;7.45;;
56455;SDS011;42354;53.218;6.564;2023-11-21T00:51:14;35.05;;;7.88;;
56455;SDS011;42354;53.218;6.564;2023-11-21T00:53:40;42.65;;;8.18;;
56455;SDS011;42354;53.218;6.564;2023-11-21T00:56:05;38.50;;;8.65;;
56455;SDS011;42354;53.218;6.564;2023-11-21T00:58:31;37.15;;;8.98;;
56455;SDS011;42354;53.218;6.564;2023-11-21T01:00:57;42.63;;;9.02;;
56455;SDS011;42354;53.218;6.564;2023-11-21T01:03:22;35.30;;;8.93;;
56455;SDS011;42354;53.218;6.564;2023-11-21T01:05:48;44.80;;;10.50;;
56455;SDS011;42354;53.218;6.564;2023-11-21T01:08:15;40.28;;;9.25;;
56455;SDS011;42354;53.218;6.564;2023-11-21T01:10:40;47.88;;;10.07;;
56455;SDS011;42354;53.218;6.564;2023-11-21T01:13:06;42.95;;;10.52;;
56455;SDS011;42354;53.218;6.564;2023-11-21T01:15:32;40.95;;;11.05;;
56455;SDS011;42354;53.218;6.564;2023-11-21T01:18:01;47.55;;;12.18;;
56455;SDS011;42354;53.218;6.564;2023-11-21T01:20:26;48.15;;;11.00;;
56455;SDS011;42354;53.218;6.564;2023-11-21T01:22:52;47.03;;;11.25;;
56455;SDS011;42354;53.218;6.564;2023-11-21T01:25:18;43.83;;;10.60;;
56455;SDS011;42354;53.218;6.564;2023-11-21T01:27:44;42.88;;;10.57;;
56455;SDS011;42354;53.218;6.564;2023-11-21T01:30:09;45.35;;;11.18;;
56455;SDS011;42354;53.218;6.564;2023-11-21T01:32:38;45.40;;;11.18;;
56455;SDS011;42354;53.218;6.564;2023-11-21T01:35:04;45.05;;;11.90;;
56455;SDS011;42354;53.218;6.564;2023-11-21T01:37:31;49.03;;;11.98;;
56455;SDS011;42354;53.218;6.564;2023-11-21T01:39:58;53.55;;;12.35;;
56455;SDS011;42354;53.218;6.564;2023-11-21T01:42:24;50.22;;;12.05;;
56455;SDS011;42354;53.218;6.564;2023-11-21T01:44:49;49.42;;;12.07;;
56455;SDS011;42354;53.218;6.564;2023-11-21T01:47:15;53.28;;;13.40;;
56455;SDS011;42354;53.218;6.564;2023-11-21T01:49:45;54.97;;;12.50;;
56455;SDS011;42354;53.218;6.564;2023-11-21T01:52:11;53.70;;;14.25;;
56455;SDS011;42354;53.218;6.564;2023-11-21T01:54:37;55.83;;;13.07;;
56455;SDS011;42354;53.218;6.564;2023-11-21T01:57:03;57.78;;;13.50;;
56455;SDS011;42354;53.218;6.564;2023-11-21T01:59:37;56.35;;;13.65;;
56455;SDS011;42354;53.218;6.564;2023-11-21T02:02:06;61.40;;;14.13;;
56455;SDS011;42354;53.218;6.564;2023-11-21T02:04:32;51.65;;;12.57;;
56455;SDS011;42354;53.218;6.564;2023-11-21T02:06:58;52.67;;;14.30;;
56455;SDS011;42354;53.218;6.564;2023-11-21T02:09:25;55.45;;;14.00;;
56455;SDS011;42354;53.218;6.564;2023-11-21T02:11:52;57.75;;;14.10;;
56455;SDS011;42354;53.218;6.564;2023-11-21T02:14:19;60.90;;;13.80;;
56455;SDS011;42354;53.218;6.564;2023-11-21T02:16:50;55.33;;;15.20;;
56455;SDS011;42354;53.218;6.564;2023-11-21T02:19:19;60.78;;;14.95;;
56455;SDS011;42354;53.218;6.564;2023-11-21T02:21:53;69.10;;;16.05;;
56455;SDS011;42354;53.218;6.564;2023-11-21T02:24:20;63.90;;;15.35;;
56455;SDS011;42354;53.218;6.564;2023-11-21T02:26:46;60.17;;;15.05;;
56455;SDS011;42354;53.218;6.564;2023-11-21T02:29:12;64.10;;;15.00;;
56455;SDS011;42354;53.218;6.564;2023-11-21T02:31:38;70.20;;;16.17;;
56455;SDS011;42354;53.218;6.564;2023-11-21T02:34:16;79.32;;;17.55;;
56455;SDS011;42354;53.218;6.564;2023-11-21T02:36:45;84.20;;;16.83;;
56455;SDS011;42354;53.218;6.564;2023-11-21T02:39:12;75.50;;;15.25;;
56455;SDS011;42354;53.218;6.564;2023-11-21T02:41:38;65.10;;;16.92;;
56455;SDS011;42354;53.218;6.564;2023-11-21T02:44:04;69.60;;;16.02;;
56455;SDS011;42354;53.218;6.564;2023-11-21T02:46:35;65.22;;;15.40;;
56455;SDS011;42354;53.218;6.564;2023-11-21T02:49:02;58.60;;;16.67;;
56455;SDS011;42354;53.218;6.564;2023-11-21T02:51:28;50.03;;;13.75;;
56455;SDS011;42354;53.218;6.564;2023-11-21T02:53:55;62.90;;;15.40;;
56455;SDS011;42354;53.218;6.564;2023-11-21T02:56:27;60.20;;;13.98;;
56455;SDS011;42354;53.218;6.564;2023-11-21T02:58:54;65.88;;;15.35;;
56455;SDS011;42354;53.218;6.564;2023-11-21T03:01:20;67.57;;;16.02;;
56455;SDS011;42354;53.218;6.564;2023-11-21T03:03:46;73.82;;;17.35;;
56455;SDS011;42354;53.218;6.564;2023-11-21T03:06:12;81.70;;;17.92;;
56455;SDS011;42354;53.218;6.564;2023-11-21T03:08:38;84.78;;;18.90;;
56455;SDS011;42354;53.218;6.564;2023-11-21T03:11:03;93.88;;;18.70;;
56455;SDS011;42354;53.218;6.564;2023-11-21T03:13:29;90.65;;;18.35;;
56455;SDS011;42354;53.218;6.564;2023-11-21T03:15:54;95.72;;;19.10;;
56455;SDS011;42354;53.218;6.564;2023-11-21T03:18:20;89.90;;;18.17;;
56455;SDS011;42354;53.218;6.564;2023-11-21T03:20:47;89.05;;;19.50;;
56455;SDS011;42354;53.218;6.564;2023-11-21T03:23:12;81.50;;;17.67;;
56455;SDS011;42354;53.218;6.564;2023-11-21T03:25:38;81.80;;;18.13;;
56455;SDS011;42354;53.218;6.564;2023-11-21T03:28:03;111.22;;;19.55;;
56455;SDS011;42354;53.218;6.564;2023-11-21T03:30:29;113.35;;;19.90;;
56455;SDS011;42354;53.218;6.564;2023-11-21T03:32:54;90.90;;;18.60;;
56455;SDS011;42354;53.218;6.564;2023-11-21T03:35:20;89.65;;;19.00;;
56455;SDS011;42354;53.218;6.564;2023-11-21T03:37:46;100.55;;;18.65;;
56455;SDS011;42354;53.218;6.564;2023-11-21T03:40:11;89.43;;;16.33;;
56455;SDS011;42354;53.218;6.564;2023-11-21T03:42:37;84.00;;;17.05;;
56455;SDS011;42354;53.218;6.564;2023-11-21T03:45:03;74.53;;;16.20;;
56455;SDS011;42354;53.218;6.564;2023-11-21T03:47:30;95.57;;;17.40;;
56455;SDS011;42354;53.218;6.564;2023-11-21T03:49:55;92.13;;;17.33;;
56455;SDS011;42354;53.218;6.564;2023-11-21T03:52:20;87.63;;;18.00;;
56455;SDS011;42354;53.218;6.564;2023-11-21T03:54:49;76.80;;;15.65;;
56455;SDS011;42354;53.218;6.564;2023-11-21T03:57:14;90.82;;;18.42;;
56455;SDS011;42354;53.218;6.564;2023-11-21T03:59:40;97.15;;;18.38;;
56455;SDS011;42354;53.218;6.564;2023-11-21T04:02:06;110.47;;;19.23;;
56455;SDS011;42354;53.218;6.564;2023-11-21T04:04:32;122.55;;;22.42;;
56455;SDS011;42354;53.218;6.564;2023-11-21T04:06:58;119.97;;;19.77;;
56455;SDS011;42354;53.218;6.564;2023-11-21T04:09:24;110.05;;;19.13;;
56455;SDS011;42354;53.218;6.564;2023-11-21T04:11:50;99.30;;;19.02;;
56455;SDS011;42354;53.218;6.564;2023-11-21T04:14:18;105.38;;;18.88;;
56455;SDS011;42354;53.218;6.564;2023-11-21T04:16:44;98.05;;;20.15;;
56455;SDS011;42354;53.218;6.564;2023-11-21T04:19:10;109.43;;;19.33;;
56455;SDS011;42354;53.218;6.564;2023-11-21T04:21:36;105.88;;;19.38;;
56455;SDS011;42354;53.218;6.564;2023-11-21T04:24:03;100.32;;;18.35;;
56455;SDS011;42354;53.218;6.564;2023-11-21T04:26:29;93.53;;;18.63;;
56455;SDS011;42354;53.218;6.564;2023-11-21T04:28:54;84.88;;;17.75;;
56455;SDS011;42354;53.218;6.564;2023-11-21T04:31:20;88.18;;;18.02;;
56455;SDS011;42354;53.218;6.564;2023-11-21T04:33:45;75.78;;;17.85;;
56455;SDS011;42354;53.218;6.564;2023-11-21T04:36:10;76.35;;;16.98;;
56455;SDS011;42354;53.218;6.564;2023-11-21T04:38:36;85.18;;;17.60;;
56455;SDS011;42354;53.218;6.564;2023-11-21T04:41:01;83.65;;;17.55;;
56455;SDS011;42354;53.218;6.564;2023-11-21T04:43:27;78.13;;;18.73;;
56455;SDS011;42354;53.218;6.564;2023-11-21T04:45:52;87.72;;;17.98;;
56455;SDS011;42354;53.218;6.564;2023-11-21T04:48:17;75.38;;;17.85;;
56455;SDS011;42354;53.218;6.564;2023-11-21T04:50:43;86.55;;;18.42;;
56455;SDS011;42354;53.218;6.564;2023-11-21T04:53:08;83.68;;;18.25;;
56455;SDS011;42354;53.218;6.564;2023-11-21T04:55:35;84.43;;;17.27;;
56455;SDS011;42354;53.218;6.564;2023-11-21T04:58:01;90.85;;;18.65;;
56455;SDS011;42354;53.218;6.564;2023-11-21T05:00:26;73.45;;;17.15;;
56455;SDS011;42354;53.218;6.564;2023-11-21T05:02:52;94.22;;;19.02;;
56455;SDS011;42354;53.218;6.564;2023-11-21T05:05:17;98.60;;;19.27;;
56455;SDS011;42354;53.218;6.564;2023-11-21T05:07:42;81.95;;;16.98;;
56455;SDS011;42354;53.218;6.564;2023-11-21T05:10:08;77.05;;;17.35;;
56455;SDS011;42354;53.218;6.564;2023-11-21T05:12:37;71.53;;;17.67;;
56455;SDS011;42354;53.218;6.564;2023-11-21T05:15:07;78.00;;;17.55;;
56455;SDS011;42354;53.218;6.564;2023-11-21T05:17:36;60.00;;;15.10;;
56455;SDS011;42354;53.218;6.564;2023-11-21T05:20:03;65.60;;;15.77;;
56455;SDS011;42354;53.218;6.564;2023-11-21T05:22:33;48.88;;;13.85;;
56455;SDS011;42354;53.218;6.564;2023-11-21T05:24:59;45.00;;;14.52;;
56455;SDS011;42354;53.218;6.564;2023-11-21T05:27:28;51.50;;;13.93;;
56455;SDS011;42354;53.218;6.564;2023-11-21T05:29:53;43.50;;;13.50;;
56455;SDS011;42354;53.218;6.564;2023-11-21T05:32:18;47.20;;;14.77;;
56455;SDS011;42354;53.218;6.564;2023-11-21T05:34:44;44.17;;;13.73;;
56455;SDS011;42354;53.218;6.564;2023-11-21T05:37:12;37.30;;;13.55;;
56455;SDS011;42354;53.218;6.564;2023-11-21T05:39:38;39.85;;;13.65;;
56455;SDS011;42354;53.218;6.564;2023-11-21T05:42:03;44.15;;;13.57;;
56455;SDS011;42354;53.218;6.564;2023-11-21T05:44:29;49.45;;;15.15;;
56455;SDS011;42354;53.218;6.564;2023-11-21T05:46:55;49.65;;;14.85;;
56455;SDS011;42354;53.218;6.564;2023-11-21T05:49:20;46.85;;;14.50;;
56455;SDS011;42354;53.218;6.564;2023-11-21T05:51:54;44.75;;;15.38;;
56455;SDS011;42354;53.218;6.564;2023-11-21T05:54:19;47.65;;;15.88;;
56455;SDS011;42354;53.218;6.564;2023-11-21T05:56:45;47.00;;;15.82;;
56455;SDS011;42354;53.218;6.564;2023-11-21T05:59:12;39.60;;;14.35;;
56455;SDS011;42354;53.218;6.564;2023-11-21T06:01:37;46.90;;;15.20;;
56455;SDS011;42354;53.218;6.564;2023-11-21T06:04:04;45.08;;;16.13;;
56455;SDS011;42354;53.218;6.564;2023-11-21T06:06:30;49.70;;;16.55;;
56455;SDS011;42354;53.218;6.564;2023-11-21T06:08:56;47.97;;;16.17;;
56455;SDS011;42354;53.218;6.564;2023-11-21T06:11:22;56.67;;;17.10;;
56455;SDS011;42354;53.218;6.564;2023-11-21T06:13:47;67.93;;;19.05;;
56455;SDS011;42354;53.218;6.564;2023-11-21T06:16:13;70.57;;;19.83;;
56455;SDS011;42354;53.218;6.564;2023-11-21T06:18:41;67.18;;;20.23;;
56455;SDS011;42354;53.218;6.564;2023-11-21T06:21:09;75.55;;;19.08;;
56455;SDS011;42354;53.218;6.564;2023-11-21T06:23:34;67.03;;;19.13;;
56455;SDS011;42354;53.218;6.564;2023-11-21T06:26:00;67.03;;;19.40;;
56455;SDS011;42354;53.218;6.564;2023-11-21T06:28:26;77.22;;;20.92;;
56455;SDS011;42354;53.218;6.564;2023-11-21T06:30:51;72.53;;;20.77;;
56455;SDS011;42354;53.218;6.564;2023-11-21T06:33:18;73.80;;;19.80;;
56455;SDS011;42354;53.218;6.564;2023-11-21T06:35:44;66.88;;;18.35;;
56455;SDS011;42354;53.218;6.564;2023-11-21T06:38:09;59.97;;;18.15;;
56455;SDS011;42354;53.218;6.564;2023-11-21T06:40:35;50.00;;;15.25;;
56455;SDS011;42354;53.218;6.564;2023-11-21T06:43:00;44.60;;;13.90;;
56455;SDS011;42354;53.218;6.564;2023-11-21T06:45:26;49.42;;;14.95;;
56455;SDS011;42354;53.218;6.564;2023-11-21T06:47:51;38.75;;;13.63;;
56455;SDS011;42354;53.218;6.564;2023-11-21T06:50:17;46.33;;;13.45;;
56455;SDS011;42354;53.218;6.564;2023-11-21T06:52:43;43.25;;;13.57;;
56455;SDS011;42354;53.218;6.564;2023-11-21T06:55:08;44.10;;;14.65;;
56455;SDS011;42354;53.218;6.564;2023-11-21T06:57:34;44.10;;;14.30;;
56455;SDS011;42354;53.218;6.564;2023-11-21T07:00:00;45.22;;;15.32;;
56455;SDS011;42354;53.218;6.564;2023-11-21T07:02:26;44.42;;;15.90;;
56455;SDS011;42354;53.218;6.564;2023-11-21T07:04:51;44.92;;;15.75;;
56455;SDS011;42354;53.218;6.564;2023-11-21T07:07:17;50.58;;;17.13;;
56455;SDS011;42354;53.218;6.564;2023-11-21T07:09:43;54.55;;;18.30;;
56455;SDS011;42354;53.218;6.564;2023-11-21T07:12:09;63.75;;;19.95;;
56455;SDS011;42354;53.218;6.564;2023-11-21T07:14:36;61.30;;;19.77;;
56455;SDS011;42354;53.218;6.564;2023-11-21T07:17:04;57.85;;;20.10;;
56455;SDS011;42354;53.218;6.564;2023-11-21T07:19:29;65.97;;;21.02;;
56455;SDS011;42354;53.218;6.564;2023-11-21T07:21:55;64.78;;;21.13;;
56455;SDS011;42354;53.218;6.564;2023-11-21T07:24:21;69.85;;;23.23;;
56455;SDS011;42354;53.218;6.564;2023-11-21T07:26:48;69.47;;;22.00;;
56455;SDS011;42354;53.218;6.564;2023-11-21T07:29:13;69.10;;;23.65;;
56455;SDS011;42354;53.218;6.564;2023-11-21T07:31:39;61.45;;;21.33;;
56455;SDS011;42354;53.218;6.564;2023-11-21T07:34:06;61.17;;;20.90;;
56455;SDS011;42354;53.218;6.564;2023-11-21T07:36:31;62.55;;;20.17;;
56455;SDS011;42354;53.218;6.564;2023-11-21T07:38:57;61.30;;;21.70;;
56455;SDS011;42354;53.218;6.564;2023-11-21T07:41:22;60.15;;;21.50;;
56455;SDS011;42354;53.218;6.564;2023-11-21T07:43:47;63.45;;;21.40;;
56455;SDS011;42354;53.218;6.564;2023-11-21T07:46:13;59.13;;;21.83;;
56455;SDS011;42354;53.218;6.564;2023-11-21T07:48:38;67.97;;;22.05;;
56455;SDS011;42354;53.218;6.564;2023-11-21T07:51:06;57.53;;;21.75;;
56455;SDS011;42354;53.218;6.564;2023-11-21T07:53:34;62.75;;;22.63;;
56455;SDS011;42354;53.218;6.564;2023-11-21T07:56:04;56.80;;;21.38;;
56455;SDS011;42354;53.218;6.564;2023-11-21T07:58:33;58.53;;;21.52;;
56455;SDS011;42354;53.218;6.564;2023-11-21T08:00:59;57.67;;;21.60;;
56455;SDS011;42354;53.218;6.564;2023-11-21T08:03:25;51.40;;;20.35;;
56455;SDS011;42354;53.218;6.564;2023-11-21T08:05:51;51.60;;;20.70;;
56455;SDS011;42354;53.218;6.564;2023-11-21T08:08:17;53.35;;;19.73;;
56455;SDS011;42354;53.218;6.564;2023-11-21T08:10:43;51.90;;;21.00;;
56455;SDS011;42354;53.218;6.564;2023-11-21T08:13:21;54.78;;;21.23;;
56455;SDS011;42354;53.218;6.564;2023-11-21T08:15:50;55.85;;;21.48;;
56455;SDS011;42354;53.218;6.564;2023-11-21T08:18:16;55.15;;;23.73;;
56455;SDS011;42354;53.218;6.564;2023-11-21T08:20:42;52.30;;;22.02;;
56455;SDS011;42354;53.218;6.564;2023-11-21T08:23:08;62.25;;;24.73;;
56455;SDS011;42354;53.218;6.564;2023-11-21T08:25:33;58.95;;;24.08;;
56455;SDS011;42354;53.218;6.564;2023-11-21T08:27:59;60.63;;;22.60;;
56455;SDS011;42354;53.218;6.564;2023-11-21T08:30:25;56.58;;;22.50;;
56455;SDS011;42354;53.218;6.564;2023-11-21T08:32:54;58.50;;;21.67;;
56455;SDS011;42354;53.218;6.564;2023-11-21T08:35:23;50.78;;;22.17;;
56455;SDS011;42354;53.218;6.564;2023-11-21T08:37:50;47.47;;;21.23;;
56455;SDS011;42354;53.218;6.564;2023-11-21T08:40:17;48.92;;;21.67;;
56455;SDS011;42354;53.218;6.564;2023-11-21T08:42:43;45.78;;;19.95;;
56455;SDS011;42354;53.218;6.564;2023-11-21T08:45:10;39.25;;;18.88;;
56455;SDS011;42354;53.218;6.564;2023-11-21T08:47:35;33.75;;;17.02;;
56455;SDS011;42354;53.218;6.564;2023-11-21T08:50:01;34.70;;;18.95;;
56455;SDS011;42354;53.218;6.564;2023-11-21T08:52:27;39.97;;;17.73;;
56455;SDS011;42354;53.218;6.564;2023-11-21T08:54:53;38.53;;;18.30;;
56455;SDS011;42354;53.218;6.564;2023-11-21T08:57:23;31.88;;;16.58;;
56455;SDS011;42354;53.218;6.564;2023-11-21T08:59:48;33.20;;;17.02;;
56455;SDS011;42354;53.218;6.564;2023-11-21T09:02:20;31.27;;;17.08;;
56455;SDS011;42354;53.218;6.564;2023-11-21T09:04:45;29.42;;;15.65;;
56455;SDS011;42354;53.218;6.564;2023-11-21T09:07:10;29.50;;;15.18;;
56455;SDS011;42354;53.218;6.564;2023-11-21T09:09:36;26.38;;;14.27;;
56455;SDS011;42354;53.218;6.564;2023-11-21T09:12:01;27.30;;;14.73;;
56455;SDS011;42354;53.218;6.564;2023-11-21T09:14:29;24.95;;;14.52;;
56455;SDS011;42354;53.218;6.564;2023-11-21T09:16:55;26.88;;;15.57;;
56455;SDS011;42354;53.218;6.564;2023-11-21T09:19:21;27.25;;;14.23;;
56455;SDS011;42354;53.218;6.564;2023-11-21T09:21:46;27.02;;;14.90;;
56455;SDS011;42354;53.218;6.564;2023-11-21T09:24:12;26.27;;;14.57;;
56455;SDS011;42354;53.218;6.564;2023-11-21T09:26:37;26.05;;;15.15;;
56455;SDS011;42354;53.218;6.564;2023-11-21T09:29:02;24.92;;;15.23;;
56455;SDS011;42354;53.218;6.564;2023-11-21T09:31:28;24.33;;;13.93;;
56455;SDS011;42354;53.218;6.564;2023-11-21T09:33:53;24.67;;;14.30;;
56455;SDS011;42354;53.218;6.564;2023-11-21T09:36:19;27.75;;;14.70;;
56455;SDS011;42354;53.218;6.564;2023-11-21T09:38:47;27.10;;;14.70;;
56455;SDS011;42354;53.218;6.564;2023-11-21T09:41:21;29.20;;;15.25;;
56455;SDS011;42354;53.218;6.564;2023-11-21T09:43:55;26.48;;;14.27;;
56455;SDS011;42354;53.218;6.564;2023-11-21T09:46:26;26.77;;;14.10;;
56455;SDS011;42354;53.218;6.564;2023-11-21T09:48:54;26.20;;;14.13;;
56455;SDS011;42354;53.218;6.564;2023-11-21T09:51:25;23.27;;;13.38;;
56455;SDS011;42354;53.218;6.564;2023-11-21T09:53:55;22.40;;;12.32;;
56455;SDS011;42354;53.218;6.564;2023-11-21T09:56:24;22.83;;;12.00;;
56455;SDS011;42354;53.218;6.564;2023-11-21T09:58:52;20.98;;;11.80;;
56455;SDS011;42354;53.218;6.564;2023-11-21T10:01:18;19.40;;;10.85;;
56455;SDS011;42354;53.218;6.564;2023-11-21T10:03:45;16.50;;;10.18;;
56455;SDS011;42354;53.218;6.564;2023-11-21T10:06:12;19.67;;;10.73;;
56455;SDS011;42354;53.218;6.564;2023-11-21T10:08:39;19.50;;;11.55;;
56455;SDS011;42354;53.218;6.564;2023-11-21T10:11:05;18.63;;;11.07;;
56455;SDS011;42354;53.218;6.564;2023-11-21T10:13:36;19.30;;;11.07;;
56455;SDS011;42354;53.218;6.564;2023-11-21T10:16:02;18.58;;;10.25;;
56455;SDS011;42354;53.218;6.564;2023-11-21T10:18:31;17.73;;;9.48;;
56455;SDS011;42354;53.218;6.564;2023-11-21T10:20:59;18.65;;;10.52;;
56455;SDS011;42354;53.218;6.564;2023-11-21T10:23:25;19.45;;;9.73;;
56455;SDS011;42354;53.218;6.564;2023-11-21T10:25:52;22.42;;;10.07;;
56455;SDS011;42354;53.218;6.564;2023-11-21T10:28:18;16.17;;;9.35;;
56455;SDS011;42354;53.218;6.564;2023-11-21T10:30:45;14.65;;;9.40;;
56455;SDS011;42354;53.218;6.564;2023-11-21T10:33:11;14.95;;;9.27;;
56455;SDS011;42354;53.218;6.564;2023-11-21T10:35:42;17.92;;;9.30;;
56455;SDS011;42354;53.218;6.564;2023-11-21T10:38:12;16.70;;;9.82;;
56455;SDS011;42354;53.218;6.564;2023-11-21T10:40:39;15.23;;;8.95;;
56455;SDS011;42354;53.218;6.564;2023-11-21T10:43:06;17.33;;;9.25;;
56455;SDS011;42354;53.218;6.564;2023-11-21T10:45:34;16.90;;;9.20;;
56455;SDS011;42354;53.218;6.564;2023-11-21T10:47:59;14.95;;;8.55;;
56455;SDS011;42354;53.218;6.564;2023-11-21T10:50:25;15.43;;;8.70;;
56455;SDS011;42354;53.218;6.564;2023-11-21T10:52:51;16.63;;;9.07;;
56455;SDS011;42354;53.218;6.564;2023-11-21T10:55:19;16.90;;;9.48;;
56455;SDS011;42354;53.218;6.564;2023-11-21T10:57:48;18.92;;;9.02;;
56455;SDS011;42354;53.218;6.564;2023-11-21T11:00:14;13.95;;;8.85;;
56455;SDS011;42354;53.218;6.564;2023-11-21T11:02:41;19.13;;;8.77;;
56455;SDS011;42354;53.218;6.564;2023-11-21T11:05:08;19.73;;;9.68;;
56455;SDS011;42354;53.218;6.564;2023-11-21T11:07:36;17.23;;;10.27;;
56455;SDS011;42354;53.218;6.564;2023-11-21T11:10:09;16.50;;;8.77;;
56455;SDS011;42354;53.218;6.564;2023-11-21T11:12:39;17.05;;;9.77;;
56455;SDS011;42354;53.218;6.564;2023-11-21T11:15:06;14.38;;;9.02;;
56455;SDS011;42354;53.218;6.564;2023-11-21T11:17:35;15.82;;;9.60;;
56455;SDS011;42354;53.218;6.564;2023-11-21T11:20:04;15.07;;;8.00;;
56455;SDS011;42354;53.218;6.564;2023-11-21T11:22:39;15.60;;;8.68;;
56455;SDS011;42354;53.218;6.564;2023-11-21T11:25:19;13.02;;;7.75;;
56455;SDS011;42354;53.218;6.564;2023-11-21T11:30:59;15.68;;;7.78;;
56455;SDS011;42354;53.218;6.564;2023-11-21T11:33:54;14.98;;;8.73;;
56455;SDS011;42354;53.218;6.564;2023-11-21T11:36:36;14.40;;;8.13;;
56455;SDS011;42354;53.218;6.564;2023-11-21T11:39:26;15.23;;;8.48;;
56455;SDS011;42354;53.218;6.564;2023-11-21T11:41:53;14.50;;;8.20;;
56455;SDS011;42354;53.218;6.564;2023-11-21T11:50:05;16.73;;;7.80;;
56455;SDS011;42354;53.218;6.564;2023-11-21T11:55:12;12.63;;;7.32;;
56455;SDS011;42354;53.218;6.564;2023-11-21T11:57:42;13.98;;;7.95;;
56455;SDS011;42354;53.218;6.564;2023-11-21T12:00:11;15.32;;;8.02;;
56455;SDS011;42354;53.218;6.564;2023-11-21T12:02:55;14.63;;;8.00;;
56455;SDS011;42354;53.218;6.564;2023-11-21T12:05:25;16.63;;;9.55;;
56455;SDS011;42354;53.218;6.564;2023-11-21T12:08:00;11.95;;;7.47;;
56455;SDS011;42354;53.218;6.564;2023-11-21T12:10:28;12.27;;;7.18;;
56455;SDS011;42354;53.218;6.564;2023-11-21T12:12:58;13.73;;;7.38;;
56455;SDS011;42354;53.218;6.564;2023-11-21T12:15:27;11.43;;;7.25;;
56455;SDS011;42354;53.218;6.564;2023-11-21T12:17:56;11.52;;;6.70;;
56455;SDS011;42354;53.218;6.564;2023-11-21T12:20:24;12.50;;;7.22;;
56455;SDS011;42354;53.218;6.564;2023-11-21T12:22:51;16.98;;;7.50;;
56455;SDS011;42354;53.218;6.564;2023-11-21T12:25:18;11.13;;;6.70;;
56455;SDS011;42354;53.218;6.564;2023-11-21T12:27:45;11.23;;;7.00;;
56455;SDS011;42354;53.218;6.564;2023-11-21T12:30:12;17.65;;;7.22;;
56455;SDS011;42354;53.218;6.564;2023-11-21T12:32:44;16.63;;;7.72;;
56455;SDS011;42354;53.218;6.564;2023-11-21T12:35:16;14.20;;;7.20;;
56455;SDS011;42354;53.218;6.564;2023-11-21T12:37:44;16.85;;;7.30;;
56455;SDS011;42354;53.218;6.564;2023-11-21T12:40:10;12.70;;;7.10;;
56455;SDS011;42354;53.218;6.564;2023-11-21T12:42:44;12.77;;;7.88;;
56455;SDS011;42354;53.218;6.564;2023-11-21T12:47:45;16.15;;;8.30;;
56455;SDS011;42354;53.218;6.564;2023-11-21T12:50:15;15.75;;;8.27;;
56455;SDS011;42354;53.218;6.564;2023-11-21T12:52:46;14.73;;;7.78;;
56455;SDS011;42354;53.218;6.564;2023-11-21T12:55:22;15.55;;;7.68;;
56455;SDS011;42354;53.218;6.564;2023-11-21T12:57:52;13.93;;;7.65;;
56455;SDS011;42354;53.218;6.564;2023-11-21T13:00:19;12.82;;;7.82;;
56455;SDS011;42354;53.218;6.564;2023-11-21T13:02:56;11.70;;;7.40;;
56455;SDS011;42354;53.218;6.564;2023-11-21T13:05:27;14.23;;;7.93;;
56455;SDS011;42354;53.218;6.564;2023-11-21T13:07:54;16.63;;;7.15;;
56455;SDS011;42354;53.218;6.564;2023-11-21T13:10:23;11.25;;;7.13;;
56455;SDS011;42354;53.218;6.564;2023-11-21T13:12:52;12.80;;;7.68;;
56455;SDS011;42354;53.218;6.564;2023-11-21T13:15:18;9.43;;;6.47;;
56455;SDS011;42354;53.218;6.564;2023-11-21T13:17:44;13.45;;;7.35;;
56455;SDS011;42354;53.218;6.564;2023-11-21T13:20:10;11.45;;;6.80;;
56455;SDS011;42354;53.218;6.564;2023-11-21T13:22:54;12.55;;;7.00;;
56455;SDS011;42354;53.218;6.564;2023-11-21T13:25:28;26.85;;;17.15;;
56455;SDS011;42354;53.218;6.564;2023-11-21T13:27:56;12.57;;;7.40;;
56455;SDS011;42354;53.218;6.564;2023-11-21T13:30:22;13.30;;;6.72;;
56455;SDS011;42354;53.218;6.564;2023-11-21T13:32:52;13.98;;;7.30;;
56455;SDS011;42354;53.218;6.564;2023-11-21T13:35:27;14.57;;;6.90;;
56455;SDS011;42354;53.218;6.564;2023-11-21T13:38:06;12.25;;;6.65;;
56455;SDS011;42354;53.218;6.564;2023-11-21T13:40:32;12.00;;;6.97;;
56455;SDS011;42354;53.218;6.564;2023-11-21T13:43:05;8.57;;;5.63;;
56455;SDS011;42354;53.218;6.564;2023-11-21T13:45:30;15.25;;;6.30;;
56455;SDS011;42354;53.218;6.564;2023-11-21T13:47:56;12.60;;;6.43;;
56455;SDS011;42354;53.218;6.564;2023-11-21T13:50:27;12.00;;;6.65;;
56455;SDS011;42354;53.218;6.564;2023-11-21T13:53:02;12.55;;;6.18;;
56455;SDS011;42354;53.218;6.564;2023-11-21T13:55:34;9.93;;;6.25;;
56455;SDS011;42354;53.218;6.564;2023-11-21T13:58:00;12.07;;;5.80;;
56455;SDS011;42354;53.218;6.564;2023-11-21T14:00:29;12.65;;;6.63;;
56455;SDS011;42354;53.218;6.564;2023-11-21T14:03:10;10.32;;;5.70;;
56455;SDS011;42354;53.218;6.564;2023-11-21T14:05:45;11.48;;;5.93;;
56455;SDS011;42354;53.218;6.564;2023-11-21T14:08:20;11.05;;;6.32;;
56455;SDS011;42354;53.218;6.564;2023-11-21T14:10:48;9.38;;;6.18;;
56455;SDS011;42354;53.218;6.564;2023-11-21T14:13:22;9.02;;;6.25;;
56455;SDS011;42354;53.218;6.564;2023-11-21T14:15:50;10.57;;;5.20;;
56455;SDS011;42354;53.218;6.564;2023-11-21T14:18:19;13.32;;;6.30;;
56455;SDS011;42354;53.218;6.564;2023-11-21T14:20:52;8.48;;;4.93;;
56455;SDS011;42354;53.218;6.564;2023-11-21T14:23:17;11.38;;;5.13;;
56455;SDS011;42354;53.218;6.564;2023-11-21T14:25:43;13.07;;;5.35;;
56455;SDS011;42354;53.218;6.564;2023-11-21T14:28:08;12.18;;;5.60;;
56455;SDS011;42354;53.218;6.564;2023-11-21T14:30:36;9.32;;;5.13;;
56455;SDS011;42354;53.218;6.564;2023-11-21T14:33:04;10.27;;;4.93;;
56455;SDS011;42354;53.218;6.564;2023-11-21T14:35:30;12.65;;;5.47;;
56455;SDS011;42354;53.218;6.564;2023-11-21T14:37:57;8.65;;;5.20;;
56455;SDS011;42354;53.218;6.564;2023-11-21T14:40:24;12.48;;;5.00;;